Villa Delicias, Puerto Rico
Current Conditions -  °F | °C
As of 6:50 PM on Saturday 20 Dec 2014 (Local Time) from TJPS Reporting Station
Broken Clouds Broken Clouds  
Wind Chill: 81°   Ceiling: 6000
Heat Index: 84°   Visibility: 10mi
Dew Point: 70°   Wind: 7mph
Humidity: 70%   Direction: 120°ESE
Pressure: 29.95"   Gusts: NA
Location:  18.0073°N, 66.5912°W
Report Text: TJPS 202250Z 12006KT 10SM FEW030 BKN060 27/21 A2995
Loading
Personal Weather Stations






























Interactive Weather Map New forecast layout! Learn more

10-Day Weather Forecast

Advertisements
Track Severe Weather on mobile